Divnoe, Russia
Current Conditions -  °F | °C
As of 4:30 PM on Friday 19 Dec 2014 (Local Time) from URWI Reporting Station
Broken Clouds Broken Clouds  
Wind Chill: 41°   Ceiling: 10000
Heat Index: 46°   Visibility: 6mi
Dew Point: 39°   Wind: 11mph
Humidity: 76%   Direction: 230°SW
Pressure: 30.03"   Gusts: NA
Location:  45.92°N, 43.35°E
Report Text: URWI 191330Z 23005MPS 9999 SCT009 BKN100 08/04 Q1017 NOSIG RMKSC060
Loading
Personal Weather Stations






























Interactive Weather Map New forecast layout! Learn more

10-Day Weather Forecast

Advertisements
Track Severe Weather on mobile